sensor_id;sensor_type;location;lat;lon;timestamp;pressure;altitude;pressure_sealevel;temperature;humidity
55277;BME280;41136;51.478;-2.610;2023-01-27T00:01:47;102409.54;;;6.22;100.00
55277;BME280;41136;51.478;-2.610;2023-01-27T00:04:12;102409.76;;;6.35;100.00
55277;BME280;41136;51.478;-2.610;2023-01-27T00:06:38;102411.47;;;6.04;100.00
55277;BME280;41136;51.478;-2.610;2023-01-27T00:09:03;102411.92;;;5.42;100.00
55277;BME280;41136;51.478;-2.610;2023-01-27T00:11:28;102410.62;;;4.71;100.00
55277;BME280;41136;51.478;-2.610;2023-01-27T00:13:54;102403.49;;;5.54;100.00
55277;BME280;41136;51.478;-2.610;2023-01-27T00:16:19;102398.27;;;4.91;100.00
55277;BME280;41136;51.478;-2.610;2023-01-27T00:18:44;102392.13;;;4.55;100.00
55277;BME280;41136;51.478;-2.610;2023-01-27T00:21:09;102397.26;;;4.40;100.00
55277;BME280;41136;51.478;-2.610;2023-01-27T00:23:35;102398.62;;;4.45;100.00
55277;BME280;41136;51.478;-2.610;2023-01-27T00:26:02;102397.26;;;4.59;100.00
55277;BME280;41136;51.478;-2.610;2023-01-27T00:28:26;102392.86;;;4.61;100.00
55277;BME280;41136;51.478;-2.610;2023-01-27T00:30:51;102393.03;;;5.18;100.00
55277;BME280;41136;51.478;-2.610;2023-01-27T00:33:16;102390.88;;;5.19;100.00
55277;BME280;41136;51.478;-2.610;2023-01-27T00:35:41;102385.46;;;4.85;100.00
55277;BME280;41136;51.478;-2.610;2023-01-27T00:38:07;102381.94;;;4.69;100.00
55277;BME280;41136;51.478;-2.610;2023-01-27T00:40:32;102379.73;;;4.98;100.00
55277;BME280;41136;51.478;-2.610;2023-01-27T00:42:57;102371.62;;;4.93;100.00
55277;BME280;41136;51.478;-2.610;2023-01-27T00:45:23;102373.79;;;4.55;100.00
55277;BME280;41136;51.478;-2.610;2023-01-27T00:47:48;102376.03;;;5.46;100.00
55277;BME280;41136;51.478;-2.610;2023-01-27T00:50:14;102365.54;;;5.37;100.00
55277;BME280;41136;51.478;-2.610;2023-01-27T00:52:39;102361.65;;;5.47;100.00
55277;BME280;41136;51.478;-2.610;2023-01-27T00:55:05;102358.52;;;5.40;100.00
55277;BME280;41136;51.478;-2.610;2023-01-27T00:57:29;102358.44;;;5.37;100.00
55277;BME280;41136;51.478;-2.610;2023-01-27T00:59:54;102361.25;;;5.19;100.00
55277;BME280;41136;51.478;-2.610;2023-01-27T01:02:20;102361.75;;;4.61;100.00
55277;BME280;41136;51.478;-2.610;2023-01-27T01:04:45;102358.29;;;4.31;100.00
55277;BME280;41136;51.478;-2.610;2023-01-27T01:07:10;102352.58;;;4.66;100.00
55277;BME280;41136;51.478;-2.610;2023-01-27T01:09:36;102354.67;;;3.98;100.00
55277;BME280;41136;51.478;-2.610;2023-01-27T01:12:01;102343.47;;;4.17;100.00
55277;BME280;41136;51.478;-2.610;2023-01-27T01:14:26;102345.73;;;4.14;100.00
55277;BME280;41136;51.478;-2.610;2023-01-27T01:16:52;102351.14;;;3.91;100.00
55277;BME280;41136;51.478;-2.610;2023-01-27T01:19:17;102351.52;;;4.52;100.00
55277;BME280;41136;51.478;-2.610;2023-01-27T01:21:43;102350.78;;;4.17;100.00
55277;BME280;41136;51.478;-2.610;2023-01-27T01:24:08;102341.03;;;4.69;100.00
55277;BME280;41136;51.478;-2.610;2023-01-27T01:26:34;102341.82;;;4.57;100.00
55277;BME280;41136;51.478;-2.610;2023-01-27T01:28:59;102345.84;;;4.77;100.00
55277;BME280;41136;51.478;-2.610;2023-01-27T01:31:25;102346.30;;;4.57;100.00
55277;BME280;41136;51.478;-2.610;2023-01-27T01:33:50;102343.05;;;4.83;100.00
55277;BME280;41136;51.478;-2.610;2023-01-27T01:36:17;102336.80;;;4.61;100.00
55277;BME280;41136;51.478;-2.610;2023-01-27T01:38:41;102334.43;;;4.76;100.00
55277;BME280;41136;51.478;-2.610;2023-01-27T01:41:10;102331.34;;;4.68;100.00
55277;BME280;41136;51.478;-2.610;2023-01-27T01:43:32;102331.44;;;4.18;100.00
55277;BME280;41136;51.478;-2.610;2023-01-27T01:45:58;102330.04;;;4.28;100.00
55277;BME280;41136;51.478;-2.610;2023-01-27T01:48:28;102334.73;;;5.23;100.00
55277;BME280;41136;51.478;-2.610;2023-01-27T01:50:52;102335.68;;;5.27;100.00
55277;BME280;41136;51.478;-2.610;2023-01-27T01:53:13;102330.84;;;4.02;100.00
55277;BME280;41136;51.478;-2.610;2023-01-27T01:55:40;102323.46;;;4.27;100.00
55277;BME280;41136;51.478;-2.610;2023-01-27T01:58:06;102320.33;;;3.94;100.00
55277;BME280;41136;51.478;-2.610;2023-01-27T02:00:30;102324.48;;;4.30;100.00
55277;BME280;41136;51.478;-2.610;2023-01-27T02:02:55;102324.34;;;3.80;100.00
55277;BME280;41136;51.478;-2.610;2023-01-27T02:05:23;102325.48;;;4.06;100.00
55277;BME280;41136;51.478;-2.610;2023-01-27T02:07:50;102330.21;;;3.94;100.00
55277;BME280;41136;51.478;-2.610;2023-01-27T02:11:39;102323.03;;;3.63;100.00
55277;BME280;41136;51.478;-2.610;2023-01-27T02:15:48;102314.68;;;3.65;100.00
55277;BME280;41136;51.478;-2.610;2023-01-27T02:18:13;102313.90;;;4.01;100.00
55277;BME280;41136;51.478;-2.610;2023-01-27T02:20:42;102307.15;;;3.31;100.00
55277;BME280;41136;51.478;-2.610;2023-01-27T02:23:10;102301.76;;;3.37;100.00
55277;BME280;41136;51.478;-2.610;2023-01-27T02:27:54;102304.23;;;4.87;100.00
55277;BME280;41136;51.478;-2.610;2023-01-27T02:30:20;102306.86;;;3.97;100.00
55277;BME280;41136;51.478;-2.610;2023-01-27T02:32:45;102301.13;;;4.19;100.00
55277;BME280;41136;51.478;-2.610;2023-01-27T02:35:16;102300.93;;;3.51;100.00
55277;BME280;41136;51.478;-2.610;2023-01-27T02:37:37;102301.90;;;3.48;100.00
55277;BME280;41136;51.478;-2.610;2023-01-27T02:40:03;102301.97;;;4.10;100.00
55277;BME280;41136;51.478;-2.610;2023-01-27T02:42:27;102296.45;;;3.45;100.00
55277;BME280;41136;51.478;-2.610;2023-01-27T02:44:52;102293.48;;;3.26;100.00
55277;BME280;41136;51.478;-2.610;2023-01-27T02:47:18;102287.81;;;3.47;100.00
55277;BME280;41136;51.478;-2.610;2023-01-27T02:49:44;102287.29;;;3.00;100.00
55277;BME280;41136;51.478;-2.610;2023-01-27T02:52:09;102295.68;;;3.24;100.00
55277;BME280;41136;51.478;-2.610;2023-01-27T02:54:34;102297.90;;;3.38;100.00
55277;BME280;41136;51.478;-2.610;2023-01-27T02:57:00;102292.47;;;3.80;100.00
55277;BME280;41136;51.478;-2.610;2023-01-27T02:59:25;102287.72;;;3.94;100.00
55277;BME280;41136;51.478;-2.610;2023-01-27T03:01:51;102291.76;;;3.12;100.00
55277;BME280;41136;51.478;-2.610;2023-01-27T03:04:16;102292.72;;;3.28;100.00
55277;BME280;41136;51.478;-2.610;2023-01-27T03:06:41;102298.05;;;3.90;100.00
55277;BME280;41136;51.478;-2.610;2023-01-27T03:09:07;102298.55;;;4.28;100.00
55277;BME280;41136;51.478;-2.610;2023-01-27T03:11:32;102296.25;;;3.91;100.00
55277;BME280;41136;51.478;-2.610;2023-01-27T03:13:58;102296.75;;;3.91;100.00
55277;BME280;41136;51.478;-2.610;2023-01-27T03:16:23;102300.27;;;4.01;100.00
55277;BME280;41136;51.478;-2.610;2023-01-27T03:18:49;102301.61;;;3.37;100.00
55277;BME280;41136;51.478;-2.610;2023-01-27T03:21:15;102298.75;;;3.88;100.00
55277;BME280;41136;51.478;-2.610;2023-01-27T03:23:40;102293.18;;;3.87;100.00
55277;BME280;41136;51.478;-2.610;2023-01-27T03:26:07;102291.34;;;3.80;100.00
55277;BME280;41136;51.478;-2.610;2023-01-27T03:28:30;102287.10;;;3.62;100.00
55277;BME280;41136;51.478;-2.610;2023-01-27T03:30:59;102280.71;;;3.96;100.00
55277;BME280;41136;51.478;-2.610;2023-01-27T03:33:21;102284.45;;;3.26;100.00
55277;BME280;41136;51.478;-2.610;2023-01-27T03:35:47;102276.04;;;4.34;100.00
55277;BME280;41136;51.478;-2.610;2023-01-27T03:38:13;102275.30;;;4.27;100.00
55277;BME280;41136;51.478;-2.610;2023-01-27T03:40:38;102274.95;;;3.68;100.00
55277;BME280;41136;51.478;-2.610;2023-01-27T03:43:03;102267.23;;;4.13;100.00
55277;BME280;41136;51.478;-2.610;2023-01-27T03:45:29;102267.27;;;4.06;100.00
55277;BME280;41136;51.478;-2.610;2023-01-27T03:47:54;102267.35;;;3.69;100.00
55277;BME280;41136;51.478;-2.610;2023-01-27T03:50:19;102262.32;;;3.50;100.00
55277;BME280;41136;51.478;-2.610;2023-01-27T03:52:45;102261.57;;;3.19;100.00
55277;BME280;41136;51.478;-2.610;2023-01-27T03:55:10;102260.90;;;3.09;100.00
55277;BME280;41136;51.478;-2.610;2023-01-27T03:57:36;102254.24;;;3.53;100.00
55277;BME280;41136;51.478;-2.610;2023-01-27T04:00:01;102253.74;;;4.29;100.00
55277;BME280;41136;51.478;-2.610;2023-01-27T04:02:26;102255.46;;;3.60;100.00
55277;BME280;41136;51.478;-2.610;2023-01-27T04:04:51;102254.61;;;4.54;100.00
55277;BME280;41136;51.478;-2.610;2023-01-27T04:07:17;102255.69;;;5.00;100.00
55277;BME280;41136;51.478;-2.610;2023-01-27T04:09:42;102251.65;;;4.03;100.00
55277;BME280;41136;51.478;-2.610;2023-01-27T04:12:11;102254.65;;;3.76;100.00
55277;BME280;41136;51.478;-2.610;2023-01-27T04:14:35;102261.23;;;3.46;100.00
55277;BME280;41136;51.478;-2.610;2023-01-27T04:17:01;102259.74;;;4.06;100.00
55277;BME280;41136;51.478;-2.610;2023-01-27T04:19:24;102256.76;;;3.42;100.00
55277;BME280;41136;51.478;-2.610;2023-01-27T04:21:50;102253.00;;;3.90;100.00
55277;BME280;41136;51.478;-2.610;2023-01-27T04:24:16;102251.74;;;3.59;100.00
55277;BME280;41136;51.478;-2.610;2023-01-27T04:26:41;102257.98;;;3.96;100.00
55277;BME280;41136;51.478;-2.610;2023-01-27T04:29:06;102255.18;;;4.65;100.00
55277;BME280;41136;51.478;-2.610;2023-01-27T04:31:31;102252.84;;;4.13;100.00
55277;BME280;41136;51.478;-2.610;2023-01-27T04:33:57;102252.96;;;4.01;100.00
55277;BME280;41136;51.478;-2.610;2023-01-27T04:36:22;102254.97;;;3.59;100.00
55277;BME280;41136;51.478;-2.610;2023-01-27T04:40:50;102260.87;;;3.61;100.00
55277;BME280;41136;51.478;-2.610;2023-01-27T04:43:16;102259.82;;;3.07;100.00
55277;BME280;41136;51.478;-2.610;2023-01-27T04:45:41;102260.51;;;4.17;100.00
55277;BME280;41136;51.478;-2.610;2023-01-27T04:48:07;102257.86;;;5.21;100.00
55277;BME280;41136;51.478;-2.610;2023-01-27T04:50:32;102258.17;;;5.50;100.00
55277;BME280;41136;51.478;-2.610;2023-01-27T04:52:57;102259.13;;;5.42;100.00
55277;BME280;41136;51.478;-2.610;2023-01-27T04:55:23;102258.77;;;4.82;100.00
55277;BME280;41136;51.478;-2.610;2023-01-27T04:57:48;102259.95;;;4.32;100.00
55277;BME280;41136;51.478;-2.610;2023-01-27T05:00:15;102261.96;;;4.57;100.00
55277;BME280;41136;51.478;-2.610;2023-01-27T05:02:39;102265.03;;;5.14;100.00
55277;BME280;41136;51.478;-2.610;2023-01-27T05:05:06;102263.43;;;4.04;100.00
55277;BME280;41136;51.478;-2.610;2023-01-27T05:07:30;102258.36;;;4.08;100.00
55277;BME280;41136;51.478;-2.610;2023-01-27T05:09:56;102259.96;;;4.08;100.00
55277;BME280;41136;51.478;-2.610;2023-01-27T05:12:21;102263.77;;;4.54;100.00
55277;BME280;41136;51.478;-2.610;2023-01-27T05:14:47;102265.66;;;4.03;100.00
55277;BME280;41136;51.478;-2.610;2023-01-27T05:17:12;102266.62;;;4.43;100.00
55277;BME280;41136;51.478;-2.610;2023-01-27T05:19:37;102260.43;;;4.33;100.00
55277;BME280;41136;51.478;-2.610;2023-01-27T05:22:03;102258.78;;;4.03;100.00
55277;BME280;41136;51.478;-2.610;2023-01-27T05:24:28;102259.77;;;3.71;100.00
55277;BME280;41136;51.478;-2.610;2023-01-27T05:26:54;102261.29;;;3.90;100.00
55277;BME280;41136;51.478;-2.610;2023-01-27T05:29:19;102257.84;;;4.25;100.00
55277;BME280;41136;51.478;-2.610;2023-01-27T05:31:45;102255.74;;;4.55;100.00
55277;BME280;41136;51.478;-2.610;2023-01-27T05:34:11;102255.85;;;4.44;100.00
55277;BME280;41136;51.478;-2.610;2023-01-27T05:36:36;102255.07;;;4.84;100.00
55277;BME280;41136;51.478;-2.610;2023-01-27T05:39:01;102252.67;;;3.73;100.00
55277;BME280;41136;51.478;-2.610;2023-01-27T05:41:28;102256.92;;;5.05;100.00
55277;BME280;41136;51.478;-2.610;2023-01-27T05:43:54;102251.45;;;4.09;100.00
55277;BME280;41136;51.478;-2.610;2023-01-27T05:46:19;102254.12;;;3.92;100.00
55277;BME280;41136;51.478;-2.610;2023-01-27T05:48:44;102256.96;;;4.00;100.00
55277;BME280;41136;51.478;-2.610;2023-01-27T05:51:10;102264.63;;;4.69;100.00
55277;BME280;41136;51.478;-2.610;2023-01-27T05:53:34;102264.00;;;3.74;100.00
55277;BME280;41136;51.478;-2.610;2023-01-27T05:55:59;102264.63;;;3.86;100.00
55277;BME280;41136;51.478;-2.610;2023-01-27T05:58:25;102265.06;;;4.01;100.00
55277;BME280;41136;51.478;-2.610;2023-01-27T06:00:51;102262.43;;;3.91;100.00
55277;BME280;41136;51.478;-2.610;2023-01-27T06:03:16;102264.06;;;4.04;100.00
55277;BME280;41136;51.478;-2.610;2023-01-27T06:05:50;102265.09;;;3.78;100.00
55277;BME280;41136;51.478;-2.610;2023-01-27T06:08:06;102272.03;;;3.98;100.00
55277;BME280;41136;51.478;-2.610;2023-01-27T06:10:32;102270.36;;;3.53;100.00
55277;BME280;41136;51.478;-2.610;2023-01-27T06:12:57;102270.13;;;3.99;100.00
55277;BME280;41136;51.478;-2.610;2023-01-27T06:15:22;102275.06;;;3.98;100.00
55277;BME280;41136;51.478;-2.610;2023-01-27T06:17:48;102277.52;;;4.63;100.00
55277;BME280;41136;51.478;-2.610;2023-01-27T06:20:13;102271.58;;;5.16;100.00
55277;BME280;41136;51.478;-2.610;2023-01-27T06:22:39;102274.91;;;3.90;100.00
55277;BME280;41136;51.478;-2.610;2023-01-27T06:25:05;102278.16;;;4.38;100.00
55277;BME280;41136;51.478;-2.610;2023-01-27T06:27:29;102279.71;;;5.79;100.00
55277;BME280;41136;51.478;-2.610;2023-01-27T06:29:55;102277.13;;;5.04;100.00
55277;BME280;41136;51.478;-2.610;2023-01-27T06:32:20;102276.81;;;4.61;100.00
55277;BME280;41136;51.478;-2.610;2023-01-27T06:34:45;102272.34;;;4.07;100.00
55277;BME280;41136;51.478;-2.610;2023-01-27T06:37:11;102273.63;;;5.58;100.00
55277;BME280;41136;51.478;-2.610;2023-01-27T06:39:36;102276.24;;;4.71;100.00
55277;BME280;41136;51.478;-2.610;2023-01-27T06:42:02;102273.88;;;5.74;100.00
55277;BME280;41136;51.478;-2.610;2023-01-27T06:44:27;102276.08;;;5.37;100.00
55277;BME280;41136;51.478;-2.610;2023-01-27T06:46:52;102271.90;;;4.94;100.00
55277;BME280;41136;51.478;-2.610;2023-01-27T06:49:18;102281.00;;;5.06;100.00
55277;BME280;41136;51.478;-2.610;2023-01-27T06:51:43;102281.48;;;5.09;100.00
55277;BME280;41136;51.478;-2.610;2023-01-27T06:54:09;102283.48;;;5.63;100.00
55277;BME280;41136;51.478;-2.610;2023-01-27T06:56:35;102281.98;;;6.02;100.00
55277;BME280;41136;51.478;-2.610;2023-01-27T06:59:00;102279.01;;;4.68;100.00
55277;BME280;41136;51.478;-2.610;2023-01-27T07:01:26;102281.28;;;4.60;100.00
55277;BME280;41136;51.478;-2.610;2023-01-27T07:03:51;102280.38;;;3.65;100.00
55277;BME280;41136;51.478;-2.610;2023-01-27T07:06:17;102288.28;;;4.32;100.00
55277;BME280;41136;51.478;-2.610;2023-01-27T07:08:43;102287.31;;;4.40;100.00
55277;BME280;41136;51.478;-2.610;2023-01-27T07:11:08;102284.51;;;4.22;100.00
55277;BME280;41136;51.478;-2.610;2023-01-27T07:13:34;102280.61;;;3.65;100.00
55277;BME280;41136;51.478;-2.610;2023-01-27T07:15:59;102276.96;;;4.11;100.00
55277;BME280;41136;51.478;-2.610;2023-01-27T07:18:24;102282.11;;;4.71;100.00
55277;BME280;41136;51.478;-2.610;2023-01-27T07:20:50;102284.54;;;3.94;100.00
55277;BME280;41136;51.478;-2.610;2023-01-27T07:23:15;102290.25;;;3.80;100.00
55277;BME280;41136;51.478;-2.610;2023-01-27T07:25:41;102292.94;;;4.15;100.00
55277;BME280;41136;51.478;-2.610;2023-01-27T07:28:06;102291.74;;;5.00;100.00
55277;BME280;41136;51.478;-2.610;2023-01-27T07:30:32;102292.40;;;5.18;100.00
55277;BME280;41136;51.478;-2.610;2023-01-27T07:33:02;102291.64;;;4.89;100.00
55277;BME280;41136;51.478;-2.610;2023-01-27T07:35:23;102296.68;;;5.03;100.00
55277;BME280;41136;51.478;-2.610;2023-01-27T07:37:48;102295.95;;;5.07;100.00
55277;BME280;41136;51.478;-2.610;2023-01-27T07:40:14;102290.62;;;4.35;100.00
55277;BME280;41136;51.478;-2.610;2023-01-27T07:42:40;102292.21;;;4.18;100.00
55277;BME280;41136;51.478;-2.610;2023-01-27T07:45:06;102293.54;;;3.90;100.00
55277;BME280;41136;51.478;-2.610;2023-01-27T07:47:30;102293.76;;;4.70;100.00
55277;BME280;41136;51.478;-2.610;2023-01-27T07:49:56;102294.50;;;3.85;100.00
55277;BME280;41136;51.478;-2.610;2023-01-27T07:52:21;102293.71;;;4.49;100.00
55277;BME280;41136;51.478;-2.610;2023-01-27T07:54:47;102294.11;;;4.40;100.00
55277;BME280;41136;51.478;-2.610;2023-01-27T07:57:12;102295.18;;;3.75;100.00
55277;BME280;41136;51.478;-2.610;2023-01-27T07:59:38;102299.08;;;3.00;100.00
55277;BME280;41136;51.478;-2.610;2023-01-27T08:02:04;102295.80;;;4.99;100.00
55277;BME280;41136;51.478;-2.610;2023-01-27T08:04:29;102291.00;;;4.31;100.00
55277;BME280;41136;51.478;-2.610;2023-01-27T08:06:54;102293.63;;;3.45;100.00
55277;BME280;41136;51.478;-2.610;2023-01-27T08:09:20;102303.56;;;2.73;100.00
55277;BME280;41136;51.478;-2.610;2023-01-27T08:11:46;102304.84;;;3.31;100.00
55277;BME280;41136;51.478;-2.610;2023-01-27T08:14:11;102313.01;;;2.69;100.00
55277;BME280;41136;51.478;-2.610;2023-01-27T08:16:37;102312.48;;;3.01;100.00
55277;BME280;41136;51.478;-2.610;2023-01-27T08:19:03;102311.82;;;3.49;100.00
55277;BME280;41136;51.478;-2.610;2023-01-27T08:21:28;102308.66;;;3.57;100.00
55277;BME280;41136;51.478;-2.610;2023-01-27T08:23:54;102311.65;;;4.29;100.00
55277;BME280;41136;51.478;-2.610;2023-01-27T08:26:19;102314.54;;;3.27;100.00
55277;BME280;41136;51.478;-2.610;2023-01-27T08:28:44;102315.62;;;3.63;100.00
55277;BME280;41136;51.478;-2.610;2023-01-27T08:31:12;102326.48;;;2.64;100.00
55277;BME280;41136;51.478;-2.610;2023-01-27T08:33:36;102327.77;;;3.10;100.00
55277;BME280;41136;51.478;-2.610;2023-01-27T08:36:03;102329.11;;;2.11;100.00
55277;BME280;41136;51.478;-2.610;2023-01-27T08:38:26;102336.86;;;2.27;100.00
55277;BME280;41136;51.478;-2.610;2023-01-27T08:40:52;102337.28;;;2.98;100.00
55277;BME280;41136;51.478;-2.610;2023-01-27T08:43:17;102335.81;;;3.20;100.00
55277;BME280;41136;51.478;-2.610;2023-01-27T08:45:43;102337.62;;;3.53;100.00
55277;BME280;41136;51.478;-2.610;2023-01-27T08:48:08;102343.14;;;4.29;100.00
55277;BME280;41136;51.478;-2.610;2023-01-27T08:50:33;102347.85;;;3.68;100.00
55277;BME280;41136;51.478;-2.610;2023-01-27T08:52:59;102345.98;;;3.79;100.00
55277;BME280;41136;51.478;-2.610;2023-01-27T08:55:25;102347.53;;;3.38;100.00
55277;BME280;41136;51.478;-2.610;2023-01-27T08:57:51;102351.48;;;3.81;100.00
55277;BME280;41136;51.478;-2.610;2023-01-27T09:00:17;102358.15;;;3.28;100.00
55277;BME280;41136;51.478;-2.610;2023-01-27T09:02:42;102361.44;;;4.26;100.00
55277;BME280;41136;51.478;-2.610;2023-01-27T09:05:07;102362.25;;;3.73;100.00
55277;BME280;41136;51.478;-2.610;2023-01-27T09:07:33;102364.99;;;3.17;100.00
55277;BME280;41136;51.478;-2.610;2023-01-27T09:09:58;102364.82;;;3.34;100.00
55277;BME280;41136;51.478;-2.610;2023-01-27T09:12:24;102364.68;;;3.65;100.00
55277;BME280;41136;51.478;-2.610;2023-01-27T09:14:49;102371.70;;;3.87;100.00
55277;BME280;41136;51.478;-2.610;2023-01-27T09:17:14;102372.59;;;4.37;100.00
55277;BME280;41136;51.478;-2.610;2023-01-27T09:19:40;102372.81;;;4.08;100.00
55277;BME280;41136;51.478;-2.610;2023-01-27T09:22:06;102369.08;;;3.85;100.00
55277;BME280;41136;51.478;-2.610;2023-01-27T09:24:31;102373.48;;;3.61;100.00
55277;BME280;41136;51.478;-2.610;2023-01-27T09:26:57;102376.86;;;3.63;100.00
55277;BME280;41136;51.478;-2.610;2023-01-27T09:29:22;102377.13;;;4.29;100.00
55277;BME280;41136;51.478;-2.610;2023-01-27T09:31:48;102374.81;;;3.44;100.00
55277;BME280;41136;51.478;-2.610;2023-01-27T09:34:13;102377.69;;;3.56;100.00
55277;BME280;41136;51.478;-2.610;2023-01-27T09:36:43;102382.61;;;3.49;100.00
55277;BME280;41136;51.478;-2.610;2023-01-27T09:39:06;102390.69;;;4.31;100.00
55277;BME280;41136;51.478;-2.610;2023-01-27T09:41:45;102394.74;;;4.05;100.00
55277;BME280;41136;51.478;-2.610;2023-01-27T09:44:12;102392.56;;;4.17;100.00
55277;BME280;41136;51.478;-2.610;2023-01-27T09:46:34;102392.99;;;3.81;100.00
55277;BME280;41136;51.478;-2.610;2023-01-27T09:49:00;102397.75;;;3.74;100.00
55277;BME280;41136;51.478;-2.610;2023-01-27T09:51:16;102402.00;;;3.73;100.00
55277;BME280;41136;51.478;-2.610;2023-01-27T09:53:52;102406.65;;;4.11;100.00
55277;BME280;41136;51.478;-2.610;2023-01-27T09:56:08;102408.09;;;3.62;100.00
55277;BME280;41136;51.478;-2.610;2023-01-27T09:58:38;102408.98;;;3.47;100.00
55277;BME280;41136;51.478;-2.610;2023-01-27T10:00:59;102416.05;;;3.29;100.00
55277;BME280;41136;51.478;-2.610;2023-01-27T10:03:30;102411.02;;;3.62;100.00
55277;BME280;41136;51.478;-2.610;2023-01-27T10:05:57;102411.51;;;3.65;100.00
55277;BME280;41136;51.478;-2.610;2023-01-27T10:08:22;102406.71;;;3.83;100.00
55277;BME280;41136;51.478;-2.610;2023-01-27T10:10:46;102409.91;;;3.08;100.00
55277;BME280;41136;51.478;-2.610;2023-01-27T10:13:12;102412.42;;;3.44;100.00
55277;BME280;41136;51.478;-2.610;2023-01-27T10:15:38;102406.05;;;3.73;100.00
55277;BME280;41136;51.478;-2.610;2023-01-27T10:17:58;102406.11;;;4.30;100.00
55277;BME280;41136;51.478;-2.610;2023-01-27T10:20:25;102405.23;;;4.71;100.00
55277;BME280;41136;51.478;-2.610;2023-01-27T10:22:52;102407.77;;;4.01;100.00
55277;BME280;41136;51.478;-2.610;2023-01-27T10:25:20;102403.16;;;3.83;100.00
55277;BME280;41136;51.478;-2.610;2023-01-27T10:27:36;102408.74;;;4.42;100.00
55277;BME280;41136;51.478;-2.610;2023-01-27T10:30:04;102410.95;;;4.46;100.00
55277;BME280;41136;51.478;-2.610;2023-01-27T10:32:26;102414.49;;;4.50;100.00
55277;BME280;41136;51.478;-2.610;2023-01-27T10:34:58;102408.91;;;4.72;100.00
55277;BME280;41136;51.478;-2.610;2023-01-27T10:37:23;102409.10;;;4.50;100.00
55277;BME280;41136;51.478;-2.610;2023-01-27T10:39:47;102408.02;;;4.66;100.00
55277;BME280;41136;51.478;-2.610;2023-01-27T10:42:15;102404.42;;;5.23;100.00
55277;BME280;41136;51.478;-2.610;2023-01-27T10:44:42;102406.75;;;4.39;100.00
55277;BME280;41136;51.478;-2.610;2023-01-27T10:47:04;102404.39;;;4.03;100.00
55277;BME280;41136;51.478;-2.610;2023-01-27T10:49:25;102403.41;;;4.24;100.00
55277;BME280;41136;51.478;-2.610;2023-01-27T10:51:51;102403.94;;;4.15;100.00
55277;BME280;41136;51.478;-2.610;2023-01-27T10:54:20;102403.69;;;4.57;100.00
55277;BME280;41136;51.478;-2.610;2023-01-27T10:56:42;102405.29;;;3.97;100.00
55277;BME280;41136;51.478;-2.610;2023-01-27T10:59:11;102400.20;;;4.71;100.00
55277;BME280;41136;51.478;-2.610;2023-01-27T11:01:33;102401.81;;;4.57;100.00
55277;BME280;41136;51.478;-2.610;2023-01-27T11:03:59;102400.01;;;5.39;100.00
55277;BME280;41136;51.478;-2.610;2023-01-27T11:06:23;102396.35;;;4.52;100.00
55277;BME280;41136;51.478;-2.610;2023-01-27T11:08:50;102395.47;;;4.41;100.00
55277;BME280;41136;51.478;-2.610;2023-01-27T11:11:13;102399.54;;;3.97;100.00
55277;BME280;41136;51.478;-2.610;2023-01-27T11:13:38;102394.43;;;4.32;100.00
55277;BME280;41136;51.478;-2.610;2023-01-27T11:16:05;102389.68;;;4.51;100.00
55277;BME280;41136;51.478;-2.610;2023-01-27T11:18:30;102387.47;;;4.99;100.00
55277;BME280;41136;51.478;-2.610;2023-01-27T11:20:57;102391.02;;;5.43;100.00
55277;BME280;41136;51.478;-2.610;2023-01-27T11:23:21;102379.25;;;4.95;100.00
55277;BME280;41136;51.478;-2.610;2023-01-27T11:25:47;102381.55;;;4.41;100.00
55277;BME280;41136;51.478;-2.610;2023-01-27T11:28:19;102382.37;;;4.67;100.00
55277;BME280;41136;51.478;-2.610;2023-01-27T11:30:39;102372.80;;;5.03;100.00
55277;BME280;41136;51.478;-2.610;2023-01-27T11:33:04;102374.22;;;5.18;100.00
55277;BME280;41136;51.478;-2.610;2023-01-27T11:35:25;102374.37;;;5.29;100.00
55277;BME280;41136;51.478;-2.610;2023-01-27T11:37:51;102371.52;;;5.34;100.00
55277;BME280;41136;51.478;-2.610;2023-01-27T11:40:21;102365.03;;;6.38;100.00
55277;BME280;41136;51.478;-2.610;2023-01-27T11:42:42;102358.09;;;4.66;100.00
55277;BME280;41136;51.478;-2.610;2023-01-27T11:45:13;102363.11;;;5.48;100.00
55277;BME280;41136;51.478;-2.610;2023-01-27T11:47:37;102362.11;;;4.74;100.00
55277;BME280;41136;51.478;-2.610;2023-01-27T11:49:58;102355.98;;;4.95;100.00
55277;BME280;41136;51.478;-2.610;2023-01-27T11:52:24;102358.07;;;4.61;100.00
55277;BME280;41136;51.478;-2.610;2023-01-27T11:54:52;102359.70;;;5.05;100.00
55277;BME280;41136;51.478;-2.610;2023-01-27T11:57:18;102357.11;;;5.07;100.00
55277;BME280;41136;51.478;-2.610;2023-01-27T11:59:40;102348.91;;;4.86;100.00
55277;BME280;41136;51.478;-2.610;2023-01-27T12:02:18;102345.29;;;4.15;100.00
55277;BME280;41136;51.478;-2.610;2023-01-27T12:04:42;102346.10;;;4.50;100.00
55277;BME280;41136;51.478;-2.610;2023-01-27T12:07:00;102341.54;;;4.19;100.00
55277;BME280;41136;51.478;-2.610;2023-01-27T12:11:45;102340.26;;;4.93;100.00
55277;BME280;41136;51.478;-2.610;2023-01-27T12:14:12;102336.78;;;5.27;100.00
55277;BME280;41136;51.478;-2.610;2023-01-27T12:16:43;102337.34;;;4.85;100.00
55277;BME280;41136;51.478;-2.610;2023-01-27T12:19:03;102338.61;;;4.93;100.00
55277;BME280;41136;51.478;-2.610;2023-01-27T12:21:33;102335.67;;;4.53;100.00
55277;BME280;41136;51.478;-2.610;2023-01-27T12:23:53;102340.41;;;4.12;100.00
55277;BME280;41136;51.478;-2.610;2023-01-27T12:26:28;102334.45;;;4.89;100.00
55277;BME280;41136;51.478;-2.610;2023-01-27T12:28:48;102330.16;;;5.10;100.00
55277;BME280;41136;51.478;-2.610;2023-01-27T12:31:11;102330.24;;;4.66;100.00
55277;BME280;41136;51.478;-2.610;2023-01-27T12:33:36;102327.33;;;4.74;100.00
55277;BME280;41136;51.478;-2.610;2023-01-27T12:36:00;102317.74;;;4.43;100.00
55277;BME280;41136;51.478;-2.610;2023-01-27T12:38:26;102323.80;;;4.48;100.00
55277;BME280;41136;51.478;-2.610;2023-01-27T12:40:56;102321.99;;;4.70;100.00